This is the latest recevied weather packets stored in our database for station/object WD9GET. If no packets are shown the sender has not sent any weather packets the latest 10 day(s).
| Time | Temp. | Humidity | Pressure | Rain* | Wind** | Luminosity | Snow |
|---|---|---|---|---|---|---|---|
| 1778360261 | 32.78° C | 62% | 1007.5 hPa | 0 mm | - | 663 W/m² | - |
| 1778360198 | 32.78° C | 61% | 1007.5 hPa | 0 mm | - | 591 W/m² | - |
| 1778360139 | 32.78° C | 61% | 1007.5 hPa | 0 mm | - | 627 W/m² | - |
| 1778360072 | 32.22° C | 61% | 1007.5 hPa | 0 mm | - | 761 W/m² | - |
| 1778360009 | 32.22° C | 61% | 1007.5 hPa | 0 mm | - | 761 W/m² | - |
| 1778359950 | 32.22° C | 62% | 1007.5 hPa | 0 mm | - | 734 W/m² | - |
| 1778359890 | 32.22° C | 62% | 1007.5 hPa | 0 mm | - | 734 W/m² | - |
| 1778359830 | 32.22° C | 63% | 1007.5 hPa | 0 mm | - | 789 W/m² | - |
| 1778359766 | 32.22° C | 62% | 1007.5 hPa | 0 mm | - | 792 W/m² | - |
| 1778359708 | 32.22° C | 62% | 1007.5 hPa | 0 mm | - | 792 W/m² | - |
| 1778359643 | 32.22° C | 63% | 1007.5 hPa | 0 mm | - | 792 W/m² | - |
| 1778359584 | 32.22° C | 62% | 1007.5 hPa | 0 mm | - | 796 W/m² | - |
| 1778359524 | 32.78° C | 60% | 1007.5 hPa | 0 mm | - | 828 W/m² | - |
| 1778359464 | 32.78° C | 60% | 1007.6 hPa | 0 mm | - | 839 W/m² | - |
| 1778359404 | 32.78° C | 60% | 1007.6 hPa | 0 mm | - | 839 W/m² | - |
| 1778359341 | 32.78° C | 60% | 1007.6 hPa | 0 mm | - | 843 W/m² | - |
| 1778359281 | 32.78° C | 59% | 1007.6 hPa | 0 mm | - | 841 W/m² | - |
| 1778359221 | 32.78° C | 59% | 1007.6 hPa | 0 mm | - | 841 W/m² | - |
| 1778359161 | 32.78° C | 59% | 1007.6 hPa | 0 mm | - | 779 W/m² | - |
| 1778359100 | 32.78° C | 58% | 1007.7 hPa | 0 mm | - | 419 W/m² | - |
| 1778359039 | 32.78° C | 61% | 1007.7 hPa | 0 mm | - | 817 W/m² | - |
| 1778358969 | 32.78° C | 60% | 1007.7 hPa | 0 mm | - | 857 W/m² | - |
| 1778358909 | 32.78° C | 62% | 1007.7 hPa | 0 mm | - | 837 W/m² | - |
| 1778358849 | 32.78° C | 61% | 1007.7 hPa | 0 mm | - | 841 W/m² | - |
| 1778358780 | 32.78° C | 60% | 1007.8 hPa | 0 mm | - | 828 W/m² | - |
* Rain latest hour (hover to see other rain measurements)
** Current wind speed in m/s (hover to see current wind gust speed)